createdAt,value
2018-08-10T00:01:08.879Z,99.90
2018-08-10T00:03:38.240Z,99.90
2018-08-10T00:06:07.895Z,99.90
2018-08-10T00:08:37.640Z,99.90
2018-08-10T00:11:07.029Z,99.90
2018-08-10T00:13:36.513Z,99.90
2018-08-10T00:16:05.949Z,99.90
2018-08-10T00:18:35.543Z,99.90
2018-08-10T00:21:05.171Z,99.90
2018-08-10T00:23:34.720Z,99.90
2018-08-10T00:26:04.529Z,99.90
2018-08-10T00:28:34.027Z,99.90
2018-08-10T00:31:03.393Z,99.90
2018-08-10T00:33:32.966Z,99.90
2018-08-10T00:36:02.435Z,99.90
2018-08-10T00:38:31.946Z,99.90
2018-08-10T00:41:01.553Z,99.90
2018-08-10T00:43:30.894Z,99.90
2018-08-10T00:46:00.506Z,99.90
2018-08-10T00:48:30.432Z,99.90
2018-08-10T00:50:59.825Z,99.90
2018-08-10T00:53:29.231Z,99.90
2018-08-10T00:55:58.801Z,99.90
2018-08-10T00:58:28.340Z,99.90
2018-08-10T01:00:58.349Z,99.90
2018-08-10T01:03:27.782Z,99.90
2018-08-10T01:05:58.263Z,99.90
2018-08-10T01:08:27.711Z,99.90
2018-08-10T01:10:56.940Z,99.90
2018-08-10T01:13:26.649Z,99.90
2018-08-10T01:15:56.124Z,99.90
2018-08-10T01:18:25.799Z,99.90
2018-08-10T01:20:56.000Z,99.90
2018-08-10T01:23:25.940Z,99.90
2018-08-10T01:25:55.574Z,99.90
2018-08-10T01:28:25.241Z,99.90
2018-08-10T01:30:54.994Z,99.90
2018-08-10T01:33:24.761Z,99.90
2018-08-10T01:35:54.200Z,99.90
2018-08-10T01:38:23.572Z,99.90
2018-08-10T01:40:52.930Z,99.90
2018-08-10T01:43:22.580Z,99.90
2018-08-10T01:45:52.284Z,99.90
2018-08-10T01:48:21.791Z,99.90
2018-08-10T01:50:51.070Z,99.90
2018-08-10T01:53:20.510Z,99.90
2018-08-10T01:55:50.130Z,99.90
2018-08-10T01:58:19.653Z,99.90
2018-08-10T02:00:48.971Z,99.90
2018-08-10T02:03:18.667Z,99.90
2018-08-10T02:05:48.416Z,99.90
2018-08-10T02:08:17.817Z,99.90
2018-08-10T02:10:47.372Z,99.90
2018-08-10T02:13:16.735Z,99.90
2018-08-10T02:15:46.269Z,99.90
2018-08-10T02:18:15.796Z,99.90
2018-08-10T02:20:45.684Z,99.90
2018-08-10T02:23:15.111Z,99.90
2018-08-10T02:25:44.683Z,99.90
2018-08-10T02:28:13.819Z,99.90
2018-08-10T02:30:43.294Z,99.90
2018-08-10T02:33:12.683Z,99.90
2018-08-10T02:35:42.030Z,99.90
2018-08-10T02:38:11.694Z,99.90
2018-08-10T02:40:41.400Z,99.90
2018-08-10T02:43:10.920Z,99.90
2018-08-10T02:45:40.443Z,99.90
2018-08-10T02:48:09.942Z,99.90
2018-08-10T02:50:39.480Z,99.90
2018-08-10T02:53:09.150Z,99.90
2018-08-10T02:55:38.620Z,99.90
2018-08-10T02:58:08.095Z,99.90
2018-08-10T03:00:37.793Z,99.90
2018-08-10T03:03:07.375Z,99.90
2018-08-10T03:05:36.771Z,99.90
2018-08-10T03:08:06.394Z,99.90
2018-08-10T03:10:36.096Z,99.90
2018-08-10T03:13:05.754Z,99.90
2018-08-10T03:15:35.176Z,99.90
2018-08-10T03:18:04.670Z,99.90
2018-08-10T03:20:34.311Z,99.90
2018-08-10T03:23:03.486Z,99.90
2018-08-10T03:25:32.840Z,99.90
2018-08-10T03:28:02.581Z,99.90
2018-08-10T03:30:32.427Z,99.90
2018-08-10T03:33:01.954Z,99.90
2018-08-10T03:35:31.008Z,99.90
2018-08-10T03:38:00.628Z,99.90
2018-08-10T03:40:30.070Z,99.90
2018-08-10T03:42:59.760Z,99.90
2018-08-10T03:45:29.453Z,99.90
2018-08-10T03:47:59.372Z,99.90
2018-08-10T03:50:28.938Z,99.90
2018-08-10T03:52:58.490Z,99.90
2018-08-10T03:55:27.868Z,99.90
2018-08-10T03:57:57.390Z,99.90
2018-08-10T04:00:26.907Z,99.90
2018-08-10T04:02:56.207Z,99.90
2018-08-10T04:05:25.990Z,99.90
2018-08-10T04:07:55.538Z,99.90
2018-08-10T04:10:25.781Z,99.90
2018-08-10T04:12:55.281Z,99.90
2018-08-10T04:15:25.018Z,99.90
2018-08-10T04:17:54.441Z,99.90
2018-08-10T04:20:23.980Z,99.90
2018-08-10T04:22:53.167Z,99.90
2018-08-10T04:25:22.757Z,99.90
2018-08-10T04:27:52.413Z,99.90
2018-08-10T04:30:21.913Z,99.90
2018-08-10T04:32:52.141Z,99.90
2018-08-10T04:35:21.851Z,99.90
2018-08-10T04:37:51.490Z,99.90
2018-08-10T04:40:20.984Z,99.90
2018-08-10T04:42:50.619Z,99.90
2018-08-10T04:45:20.211Z,99.90
2018-08-10T04:47:50.409Z,99.90
2018-08-10T04:50:19.971Z,99.90
2018-08-10T04:52:49.386Z,99.90
2018-08-10T04:55:18.874Z,99.90
2018-08-10T04:57:48.149Z,99.90
2018-08-10T05:00:18.081Z,99.90
2018-08-10T05:02:47.657Z,99.90
2018-08-10T05:05:17.274Z,99.90
2018-08-10T05:07:46.954Z,99.90
2018-08-10T05:10:16.273Z,99.90
2018-08-10T05:12:45.672Z,99.90
2018-08-10T05:15:15.304Z,99.90
2018-08-10T05:17:44.871Z,99.90
2018-08-10T05:20:14.073Z,99.90
2018-08-10T05:22:43.596Z,99.90
2018-08-10T05:25:13.151Z,99.90
2018-08-10T05:27:42.972Z,99.90
2018-08-10T05:30:12.472Z,99.90
2018-08-10T05:32:41.991Z,99.90
2018-08-10T05:35:11.832Z,99.90
2018-08-10T05:37:41.524Z,99.90
2018-08-10T05:40:12.171Z,99.90
2018-08-10T05:42:41.719Z,99.90
2018-08-10T05:45:11.318Z,99.90
2018-08-10T05:47:40.627Z,99.90
2018-08-10T05:50:10.345Z,99.90
2018-08-10T05:52:39.931Z,99.90
2018-08-10T05:55:09.379Z,99.90
2018-08-10T05:57:39.060Z,99.90
2018-08-10T06:00:09.426Z,99.90
2018-08-10T06:02:39.209Z,99.90
2018-08-10T06:05:08.880Z,99.90
2018-08-10T06:07:39.666Z,99.90
2018-08-10T06:10:10.629Z,99.90
2018-08-10T06:12:41.096Z,99.90
2018-08-10T06:15:11.477Z,99.90
2018-08-10T06:17:41.617Z,99.90
2018-08-10T06:20:12.608Z,99.90
2018-08-10T06:22:42.610Z,99.90
2018-08-10T06:25:11.693Z,99.90
2018-08-10T06:27:41.239Z,99.90
2018-08-10T06:30:12.607Z,99.90
2018-08-10T06:32:41.880Z,99.90
2018-08-10T06:35:11.416Z,99.90
2018-08-10T06:37:40.575Z,99.90
2018-08-10T06:40:10.125Z,99.90
2018-08-10T06:42:39.804Z,99.90
2018-08-10T06:45:09.258Z,99.90
2018-08-10T06:47:40.049Z,99.90
2018-08-10T06:50:13.223Z,99.90
2018-08-10T06:52:42.417Z,99.90
2018-08-10T06:55:11.669Z,99.90
2018-08-10T06:57:41.121Z,99.90
2018-08-10T07:00:10.648Z,99.90
2018-08-10T07:02:40.008Z,99.90
2018-08-10T07:05:10.008Z,99.90
2018-08-10T07:07:39.448Z,99.90
2018-08-10T07:10:09.274Z,99.90
2018-08-10T07:12:38.591Z,99.90
2018-08-10T07:15:07.851Z,99.90
2018-08-10T07:17:37.306Z,99.90
2018-08-10T07:20:07.669Z,99.90
2018-08-10T07:22:37.225Z,99.90
2018-08-10T07:25:06.751Z,99.90
2018-08-10T07:27:36.173Z,99.90
2018-08-10T07:30:08.260Z,99.90
2018-08-10T07:32:37.689Z,99.90
2018-08-10T07:35:07.449Z,99.90
2018-08-10T07:37:36.929Z,99.90
2018-08-10T07:40:06.764Z,99.90
2018-08-10T07:42:36.127Z,99.90
2018-08-10T07:45:06.343Z,99.90
2018-08-10T07:47:36.021Z,99.90
2018-08-10T07:50:05.747Z,99.90
2018-08-10T07:52:35.029Z,99.90
2018-08-10T07:55:04.567Z,99.90
2018-08-10T07:57:33.987Z,99.90
2018-08-10T08:00:03.360Z,99.90
2018-08-10T08:02:32.910Z,99.90
2018-08-10T08:05:02.357Z,99.90
2018-08-10T08:07:32.106Z,99.90
2018-08-10T08:10:01.456Z,99.90
2018-08-10T08:12:31.340Z,99.90
2018-08-10T08:15:00.963Z,99.90
2018-08-10T08:17:30.349Z,99.90
2018-08-10T08:20:00.912Z,99.90
2018-08-10T08:22:30.589Z,99.90
2018-08-10T08:25:00.429Z,99.90
2018-08-10T08:27:29.664Z,99.90
2018-08-10T08:29:59.130Z,99.90
2018-08-10T08:32:28.802Z,99.90
2018-08-10T08:34:58.318Z,99.90
2018-08-10T08:37:27.680Z,99.90
2018-08-10T08:40:08.242Z,99.90
2018-08-10T08:42:37.721Z,99.90
2018-08-10T08:47:15.622Z,99.90
2018-08-10T08:49:45.209Z,99.90
2018-08-10T08:52:15.690Z,99.90
2018-08-10T08:55:08.640Z,99.90
2018-08-10T08:57:38.167Z,99.90
2018-08-10T09:00:13.675Z,99.90
2018-08-10T09:02:43.106Z,99.90
2018-08-10T09:05:12.716Z,99.90
2018-08-10T09:07:42.548Z,99.90
2018-08-10T09:10:15.743Z,99.90
2018-08-10T09:12:45.182Z,99.90
2018-08-10T09:15:16.462Z,99.90
2018-08-10T09:17:45.930Z,99.90
2018-08-10T09:20:15.620Z,99.90
2018-08-10T09:22:45.042Z,99.90
2018-08-10T09:25:16.648Z,99.90
2018-08-10T09:27:46.118Z,99.90
2018-08-10T09:30:17.699Z,99.90
2018-08-10T09:32:47.020Z,99.90
2018-08-10T09:35:16.796Z,99.90
2018-08-10T09:37:48.694Z,99.90
2018-08-10T09:40:22.133Z,99.90
2018-08-10T09:42:51.544Z,99.90
2018-08-10T09:45:20.966Z,99.90
2018-08-10T09:47:51.043Z,99.90
2018-08-10T09:50:20.976Z,99.90
2018-08-10T09:53:00.827Z,99.90
2018-08-10T09:55:34.368Z,99.90
2018-08-10T09:58:05.096Z,99.90
2018-08-10T10:00:40.306Z,99.90
2018-08-10T10:03:18.263Z,99.90
2018-08-10T10:05:48.686Z,99.90
2018-08-10T10:08:18.648Z,99.90
2018-08-10T10:10:47.982Z,99.90
2018-08-10T10:13:17.635Z,99.90
2018-08-10T10:15:47.199Z,99.90
2018-08-10T10:18:17.529Z,99.90
2018-08-10T10:20:48.350Z,99.90
2018-08-10T10:23:17.636Z,99.90
2018-08-10T10:25:48.689Z,99.90
2018-08-10T10:28:18.184Z,99.90
2018-08-10T10:30:47.600Z,99.90
2018-08-10T10:33:17.299Z,99.90
2018-08-10T10:35:46.652Z,99.90
2018-08-10T10:38:16.204Z,99.90
2018-08-10T10:40:46.022Z,99.90
2018-08-10T10:43:15.661Z,99.90
2018-08-10T10:45:45.099Z,99.90
2018-08-10T10:48:14.624Z,99.90
2018-08-10T10:50:44.046Z,99.90
2018-08-10T10:53:13.558Z,99.90
2018-08-10T10:55:42.983Z,99.90
2018-08-10T10:58:12.244Z,99.90
2018-08-10T11:00:41.631Z,99.90
2018-08-10T11:03:10.954Z,99.90
2018-08-10T11:05:40.821Z,99.90
2018-08-10T11:08:11.012Z,99.90
2018-08-10T11:10:41.369Z,99.90
2018-08-10T11:13:11.851Z,99.90
2018-08-10T11:15:41.793Z,99.90
2018-08-10T11:18:11.284Z,99.90
2018-08-10T11:20:41.094Z,99.90
2018-08-10T11:23:10.450Z,99.90
2018-08-10T11:25:39.902Z,99.90
2018-08-10T11:28:09.347Z,99.90
2018-08-10T11:30:38.771Z,99.90
2018-08-10T11:33:08.200Z,99.90
2018-08-10T11:35:37.400Z,99.90
2018-08-10T11:38:06.799Z,99.70
2018-08-10T11:40:36.039Z,99.90
2018-08-10T11:43:05.466Z,99.90
2018-08-10T11:45:34.822Z,99.90
2018-08-10T11:48:04.355Z,99.80
2018-08-10T11:50:35.712Z,99.90
2018-08-10T11:53:05.245Z,99.90
2018-08-10T11:55:34.522Z,99.60
2018-08-10T11:58:04.172Z,99.90
2018-08-10T12:00:33.924Z,99.90
2018-08-10T12:03:03.311Z,99.90
2018-08-10T12:05:32.850Z,99.90
2018-08-10T12:08:02.322Z,99.80
2018-08-10T12:10:31.855Z,99.90
2018-08-10T12:13:01.234Z,99.90
2018-08-10T12:15:30.713Z,98.80
2018-08-10T12:18:00.382Z,99.30
2018-08-10T12:20:29.709Z,99.00
2018-08-10T12:22:59.275Z,99.80
2018-08-10T12:25:28.999Z,99.50
2018-08-10T12:27:58.063Z,99.30
2018-08-10T12:30:27.584Z,99.80
2018-08-10T12:32:56.954Z,99.10
2018-08-10T12:35:26.300Z,99.30
2018-08-10T12:37:55.934Z,99.40
2018-08-10T12:40:25.330Z,99.90
2018-08-10T12:42:54.721Z,99.80
2018-08-10T12:45:23.937Z,99.90
2018-08-10T12:47:53.398Z,99.60
2018-08-10T12:50:23.064Z,99.40
2018-08-10T12:52:53.399Z,99.10
2018-08-10T12:55:22.575Z,98.30
2018-08-10T12:57:51.911Z,97.70
2018-08-10T13:00:21.240Z,98.10
2018-08-10T13:02:50.848Z,98.40
2018-08-10T13:05:20.054Z,97.90
2018-08-10T13:07:51.467Z,97.50
2018-08-10T13:10:21.033Z,97.80
2018-08-10T13:12:51.412Z,98.50
2018-08-10T13:15:21.260Z,98.60
2018-08-10T13:17:50.726Z,99.00
2018-08-10T13:20:21.181Z,99.20
2018-08-10T13:22:50.868Z,98.00
2018-08-10T13:25:19.992Z,98.00
2018-08-10T13:27:49.421Z,97.60
2018-08-10T13:30:18.803Z,96.80
2018-08-10T13:32:48.315Z,97.20
2018-08-10T13:35:17.849Z,96.60
2018-08-10T13:37:47.505Z,96.00
2018-08-10T13:40:17.092Z,96.10
2018-08-10T13:42:46.754Z,95.90
2018-08-10T13:45:16.220Z,95.00
2018-08-10T13:47:45.707Z,95.40
2018-08-10T13:50:16.867Z,95.50
2018-08-10T13:52:47.370Z,95.50
2018-08-10T13:55:18.877Z,95.30
2018-08-10T13:57:49.540Z,94.80
2018-08-10T14:00:22.183Z,94.30
2018-08-10T14:02:53.334Z,94.00
2018-08-10T14:05:23.415Z,93.90
2018-08-10T14:07:54.604Z,93.70
2018-08-10T14:10:24.044Z,93.50
2018-08-10T14:12:53.868Z,93.10
2018-08-10T14:15:23.485Z,93.10
2018-08-10T14:17:52.903Z,93.00
2018-08-10T14:20:22.444Z,92.50
2018-08-10T14:22:52.620Z,92.30
2018-08-10T14:25:22.163Z,90.00
2018-08-10T14:27:51.704Z,84.90
2018-08-10T14:30:20.856Z,85.40
2018-08-10T14:32:50.015Z,84.70
2018-08-10T14:35:19.161Z,82.70
2018-08-10T14:37:48.455Z,81.50
2018-08-10T14:40:17.546Z,76.60
2018-08-10T14:42:46.687Z,75.80
2018-08-10T14:45:16.646Z,73.70
2018-08-10T14:47:45.931Z,70.80
2018-08-10T14:50:16.242Z,70.30
2018-08-10T14:52:45.877Z,70.70
2018-08-10T14:55:16.559Z,69.60
2018-08-10T14:57:46.076Z,70.10
2018-08-10T15:00:18.624Z,68.20
2018-08-10T15:02:48.446Z,68.60
2018-08-10T15:05:18.354Z,70.10
2018-08-10T15:07:47.821Z,71.70
2018-08-10T15:10:18.183Z,72.30
2018-08-10T15:12:48.045Z,71.70
2018-08-10T15:15:19.629Z,71.30
2018-08-10T15:17:49.490Z,74.10
2018-08-10T15:20:20.721Z,72.10
2018-08-10T15:22:50.298Z,72.80
2018-08-10T15:25:19.663Z,73.00
2018-08-10T15:27:48.988Z,72.80
2018-08-10T15:30:19.420Z,72.50
2018-08-10T15:32:48.679Z,73.80
2018-08-10T15:35:47.070Z,74.40
2018-08-10T15:38:18.278Z,75.20
2018-08-10T15:40:47.503Z,77.90
2018-08-10T15:43:16.999Z,76.30
2018-08-10T15:45:46.643Z,76.60
2018-08-10T15:48:16.212Z,77.20
2018-08-10T15:50:45.476Z,76.90
2018-08-10T15:53:15.068Z,78.20
2018-08-10T15:55:44.309Z,77.40
2018-08-10T15:58:13.483Z,77.70
2018-08-10T16:00:43.815Z,78.90
2018-08-10T16:03:15.801Z,78.50
2018-08-10T16:05:45.958Z,79.10
2018-08-10T16:08:15.551Z,79.70
2018-08-10T16:10:45.199Z,80.10
2018-08-10T16:13:14.696Z,80.70
2018-08-10T16:15:44.209Z,81.00
2018-08-10T16:18:13.951Z,81.60
2018-08-10T16:20:43.580Z,81.70
2018-08-10T16:23:13.063Z,82.50
2018-08-10T16:25:42.632Z,82.10
2018-08-10T16:28:12.154Z,82.10
2018-08-10T16:30:41.935Z,82.70
2018-08-10T16:33:11.512Z,82.50
2018-08-10T16:35:41.570Z,79.30
2018-08-10T16:38:12.179Z,75.20
2018-08-10T16:40:41.820Z,75.40
2018-08-10T16:43:11.538Z,76.50
2018-08-10T16:45:40.791Z,74.70
2018-08-10T16:48:10.412Z,73.90
2018-08-10T16:50:39.907Z,75.30
2018-08-10T16:53:09.167Z,75.20
2018-08-10T16:55:38.545Z,76.00
2018-08-10T16:58:08.235Z,75.10
2018-08-10T17:00:37.561Z,73.70
2018-08-10T17:03:07.439Z,72.90
2018-08-10T17:05:37.140Z,75.50
2018-08-10T17:08:06.832Z,73.30
2018-08-10T17:10:36.258Z,73.20
2018-08-10T17:13:05.665Z,73.50
2018-08-10T17:15:35.134Z,72.80
2018-08-10T17:18:04.522Z,74.20
2018-08-10T17:20:33.802Z,75.40
2018-08-10T17:23:03.051Z,72.80
2018-08-10T17:25:32.595Z,73.60
2018-08-10T17:28:02.111Z,72.70
2018-08-10T17:30:31.671Z,72.00
2018-08-10T17:33:01.336Z,71.20
2018-08-10T17:35:31.073Z,71.30
2018-08-10T17:38:00.484Z,71.10
2018-08-10T17:40:29.781Z,72.10
2018-08-10T17:42:59.179Z,74.00
2018-08-10T17:45:29.034Z,72.90
2018-08-10T17:47:59.183Z,72.10
2018-08-10T17:50:29.959Z,72.20
2018-08-10T17:52:59.492Z,72.30
2018-08-10T17:55:28.901Z,71.50
2018-08-10T17:57:58.671Z,69.90
2018-08-10T18:00:29.184Z,71.00
2018-08-10T18:02:58.632Z,70.00
2018-08-10T18:05:28.071Z,68.40
2018-08-10T18:07:58.412Z,69.70
2018-08-10T18:10:27.945Z,71.20
2018-08-10T18:12:57.670Z,70.20
2018-08-10T18:15:27.309Z,70.50
2018-08-10T18:17:56.943Z,71.30
2018-08-10T18:20:26.607Z,71.50
2018-08-10T18:22:56.294Z,71.60
2018-08-10T18:25:26.451Z,71.30
2018-08-10T18:27:56.450Z,73.80
2018-08-10T18:30:26.861Z,74.00
2018-08-10T18:32:56.209Z,75.50
2018-08-10T18:35:25.633Z,76.00
2018-08-10T18:37:55.194Z,77.00
2018-08-10T18:40:24.883Z,77.40
2018-08-10T18:42:54.497Z,78.30
2018-08-10T18:45:24.015Z,78.90
2018-08-10T18:47:53.482Z,79.00
2018-08-10T18:50:23.159Z,77.20
2018-08-10T18:52:52.492Z,79.00
2018-08-10T18:55:23.149Z,78.60
2018-08-10T18:57:53.066Z,78.20
2018-08-10T19:00:26.440Z,77.90
2018-08-10T19:02:56.359Z,79.10
2018-08-10T19:05:25.926Z,79.20
2018-08-10T19:07:55.270Z,78.20
2018-08-10T19:10:25.972Z,77.70
2018-08-10T19:12:56.613Z,78.60
2018-08-10T19:15:26.084Z,76.90
2018-08-10T19:17:55.504Z,77.60
2018-08-10T19:20:25.091Z,77.50
2018-08-10T19:22:54.613Z,76.30
2018-08-10T19:25:24.248Z,75.90
2018-08-10T19:27:53.656Z,74.40
2018-08-10T19:30:24.528Z,75.40
2018-08-10T19:32:54.321Z,76.30
2018-08-10T19:35:23.902Z,76.40
2018-08-10T19:37:53.942Z,75.90
2018-08-10T19:40:23.549Z,76.30
2018-08-10T19:42:53.209Z,75.60
2018-08-10T19:45:23.316Z,76.00
2018-08-10T19:47:53.357Z,75.80
2018-08-10T19:50:25.056Z,76.40
2018-08-10T19:52:54.820Z,77.10
2018-08-10T19:55:24.193Z,77.40
2018-08-10T19:57:54.063Z,78.70
2018-08-10T20:00:23.478Z,79.30
2018-08-10T20:02:53.173Z,78.70
2018-08-10T20:05:23.580Z,80.20
2018-08-10T20:07:53.181Z,80.60
2018-08-10T20:10:22.610Z,80.00
2018-08-10T20:12:52.285Z,80.90
2018-08-10T20:15:21.979Z,80.90
2018-08-10T20:17:51.666Z,81.30
2018-08-10T20:20:21.149Z,81.20
2018-08-10T20:22:50.975Z,81.20
2018-08-10T20:25:20.764Z,81.10
2018-08-10T20:27:50.581Z,79.40
2018-08-10T20:30:20.124Z,81.60
2018-08-10T20:32:49.584Z,81.60
2018-08-10T20:35:20.496Z,81.80
2018-08-10T20:37:50.253Z,82.30
2018-08-10T20:40:20.957Z,82.40
2018-08-10T20:42:51.056Z,82.50
2018-08-10T20:45:20.983Z,81.60
2018-08-10T20:47:51.403Z,81.10
2018-08-10T20:50:24.007Z,82.80
2018-08-10T20:52:53.567Z,82.10
2018-08-10T20:55:23.015Z,80.80
2018-08-10T20:57:52.398Z,81.60
2018-08-10T21:00:21.921Z,80.70
2018-08-10T21:02:51.601Z,77.60
2018-08-10T21:05:21.272Z,76.90
2018-08-10T21:07:50.941Z,77.60
2018-08-10T21:10:20.340Z,77.50
2018-08-10T21:12:49.915Z,79.70
2018-08-10T21:15:19.323Z,80.10
2018-08-10T21:17:48.858Z,80.00
2018-08-10T21:20:18.771Z,78.40
2018-08-10T21:22:48.304Z,79.10
2018-08-10T21:25:17.722Z,78.40
2018-08-10T21:27:47.131Z,78.40
2018-08-10T21:30:19.415Z,77.00
2018-08-10T21:32:49.620Z,77.60
2018-08-10T21:35:19.130Z,76.20
2018-08-10T21:37:48.997Z,78.10
2018-08-10T21:40:18.661Z,77.90
2018-08-10T21:42:47.890Z,78.10
2018-08-10T21:45:17.103Z,78.10
2018-08-10T21:47:46.650Z,80.10
2018-08-10T21:50:16.253Z,79.40
2018-08-10T21:52:46.457Z,79.80
2018-08-10T21:55:15.780Z,80.40
2018-08-10T21:57:45.480Z,80.60
2018-08-10T22:00:25.114Z,79.00
2018-08-10T22:02:54.431Z,79.00
2018-08-10T22:05:24.100Z,80.10
2018-08-10T22:07:53.782Z,80.30
2018-08-10T22:10:23.341Z,79.80
2018-08-10T22:12:53.041Z,80.80
2018-08-10T22:15:27.852Z,79.50
2018-08-10T22:18:02.546Z,80.50
2018-08-10T22:20:31.868Z,81.10
2018-08-10T22:23:01.632Z,81.70
2018-08-10T22:25:30.895Z,82.20
2018-08-10T22:28:00.452Z,82.20
2018-08-10T22:30:31.327Z,83.70
2018-08-10T22:33:01.055Z,84.50
2018-08-10T22:35:30.754Z,85.40
2018-08-10T22:37:59.830Z,84.30
2018-08-10T22:40:29.541Z,84.50
2018-08-10T22:42:58.915Z,85.70
2018-08-10T22:45:28.620Z,84.60
2018-08-10T22:47:58.253Z,85.20
2018-08-10T22:50:27.644Z,86.20
2018-08-10T22:52:57.291Z,85.60
2018-08-10T22:55:26.828Z,85.70
2018-08-10T22:57:56.327Z,85.30
2018-08-10T23:00:25.859Z,86.20
2018-08-10T23:02:55.474Z,86.40
2018-08-10T23:05:24.816Z,86.90
2018-08-10T23:07:54.329Z,88.20
2018-08-10T23:10:23.583Z,87.20
2018-08-10T23:12:53.233Z,88.30
2018-08-10T23:15:23.303Z,88.50
2018-08-10T23:17:52.742Z,88.60
2018-08-10T23:20:22.197Z,88.60
2018-08-10T23:22:51.887Z,87.80
2018-08-10T23:25:21.186Z,86.70
2018-08-10T23:27:50.600Z,87.50
2018-08-10T23:30:20.665Z,87.80
2018-08-10T23:32:49.981Z,87.80
2018-08-10T23:35:19.458Z,88.50
2018-08-10T23:37:48.981Z,88.00
2018-08-10T23:40:18.822Z,87.70
2018-08-10T23:42:48.232Z,88.60
2018-08-10T23:45:17.614Z,90.10
2018-08-10T23:47:47.320Z,90.00
2018-08-10T23:50:17.717Z,90.20
2018-08-10T23:52:47.569Z,90.10
2018-08-10T23:55:18.864Z,89.30
2018-08-10T23:57:48.496Z,90.20
